< Typhoon 195525 1955 Season Typhoon 195527 >
Typhoon 195526 (OPAL)
General InformationTrack Information on Google Maps || NewsDisaster Info.ResourceGoogle EarthGE AnimationAtom FeedGeoJSON
Detalied Best Track (Time Zone = UTC)
Year Month Day Hour Lat. Long. Pressure (hPa) Wind (kt) Class Image Chart
1955 10 15 18 19.0 127.0 1008 0 2 -- Chart
1955 10 16 00 19.6 127.7 1010 0 2 -- Chart
1955 10 16 06 20.1 128.0 1008 0 2 -- Chart
1955 10 16 12 20.5 127.5 1008 0 2 -- Chart
1955 10 16 18 20.6 126.5 1006 0 2 -- Chart
1955 10 17 00 20.8 125.7 1005 0 2 -- Chart
1955 10 17 06 21.7 125.1 1000 0 9 -- Chart
1955 10 17 12 22.4 125.0 998 0 9 -- Chart
1955 10 17 18 23.0 124.9 995 0 9 -- Chart
1955 10 18 00 23.7 124.9 995 0 9 -- Chart
1955 10 18 06 23.9 125.4 985 0 9 -- Chart
1955 10 18 12 24.3 126.2 985 0 9 -- Chart
1955 10 18 18 25.1 127.2 985 0 9 -- Chart
1955 10 19 00 25.9 128.6 982 0 9 -- Chart
1955 10 19 06 27.2 129.4 985 0 9 -- Chart
1955 10 19 12 28.9 131.0 990 0 9 -- Chart
1955 10 19 18 30.6 132.8 995 0 9 -- Chart
1955 10 20 00 32.8 134.3 985 0 9 -- Chart
1955 10 20 06 35.7 137.2 990 0 9 -- Chart
1955 10 20 12 38.4 142.2 996 0 9 -- Chart
1955 10 20 18 41.1 145.5 992 0 9 -- Chart
1955 10 21 00 43.5 150.0 994 0 6 -- Chart
1955 10 21 06 45.0 154.5 992 0 6 -- Chart
1955 10 21 12 45.4 157.8 994 0 6 -- Chart
1955 10 21 18 45.6 159.0 992 0 6 -- Chart
1955 10 22 00 45.9 161.0 994 0 6 -- Chart
1955 10 22 06 46.3 162.4 994 0 6 -- Chart
1955 10 22 12 47.0 165.0 994 0 6 -- Chart
1955 10 22 18 47.3 168.0 998 0 6 -- Chart
1955 10 23 00 48.0 172.0 1000 0 6 -- Chart
1955 10 23 06 48.0 178.0 1000 0 6 -- Chart
1955 10 23 12 48.0 182.0 1000 0 6 -- Chart
Japan Meteorological Agency Best Track Data | Correction Date : 1991-07-16
< Typhoon 195525 1955 Season Typhoon 195527 >

Help